Bunker Hill, Kansas
Current Conditions -  °F | °C
As of 12:53 AM on Thursday 23 Oct 2014 (Local Time) from KRSL Reporting Station
Overcast Overcast  
Wind Chill: 61°   Ceiling: 1300
Heat Index: 61°   Visibility: 10mi
Dew Point: 57°   Wind: 13mph
Humidity: 87%   Direction: 200°SSW
Pressure: 30.04"   Gusts: NA
Location:  38.88°N, 98.7°W
Report Text: KRSL 230553Z AUTO 20011KT 10SM OVC013 16/14 A3004 RMK AO2 SLP162 T01610139 10183 20150 402440128 50003
Loading
Personal Weather Stations






























Interactive Weather Map
Tropical Storm Tracking
New forecast layout! Learn more

10-Day Weather Forecast

Advertisements
Track Severe Weather on mobile